createdAt,value
2019-03-12T00:00:06.206Z,5.48
2019-03-12T00:01:06.289Z,5.42
2019-03-12T00:02:06.260Z,5.54
2019-03-12T00:03:06.277Z,5.46
2019-03-12T00:04:06.299Z,5.42
2019-03-12T00:05:06.331Z,5.49
2019-03-12T00:06:06.355Z,5.44
2019-03-12T00:07:06.368Z,5.48
2019-03-12T00:08:06.388Z,5.37
2019-03-12T00:09:06.419Z,5.37
2019-03-12T00:10:06.438Z,5.30
2019-03-12T00:11:06.458Z,5.28
2019-03-12T00:12:06.481Z,5.27
2019-03-12T00:13:06.504Z,5.33
2019-03-12T00:14:06.527Z,5.13
2019-03-12T00:15:06.553Z,5.21
2019-03-12T00:16:06.575Z,5.13
2019-03-12T00:17:06.595Z,5.10
2019-03-12T00:18:06.614Z,5.15
2019-03-12T00:19:06.640Z,5.12
2019-03-12T00:20:06.669Z,5.15
2019-03-12T00:21:06.687Z,5.10
2019-03-12T00:22:06.707Z,5.15
2019-03-12T00:23:06.735Z,5.03
2019-03-12T00:24:06.750Z,5.05
2019-03-12T00:25:06.774Z,4.94
2019-03-12T00:26:06.799Z,5.00
2019-03-12T00:27:06.840Z,4.98
2019-03-12T00:28:06.844Z,5.02
2019-03-12T00:29:06.865Z,5.00
2019-03-12T00:30:06.910Z,4.88
2019-03-12T00:31:06.916Z,4.90
2019-03-12T00:32:06.937Z,4.88
2019-03-12T00:33:06.981Z,4.90
2019-03-12T00:34:06.987Z,4.90
2019-03-12T00:35:07.003Z,4.85
2019-03-12T00:36:07.028Z,4.84
2019-03-12T00:37:07.045Z,4.79
2019-03-12T00:38:07.070Z,4.76
2019-03-12T00:39:07.111Z,4.74
2019-03-12T00:40:07.114Z,4.74
2019-03-12T00:41:07.139Z,4.66
2019-03-12T00:42:07.162Z,4.66
2019-03-12T00:43:07.188Z,4.72
2019-03-12T00:44:07.237Z,4.66
2019-03-12T00:45:07.230Z,4.69
2019-03-12T00:46:07.259Z,4.56
2019-03-12T00:47:07.274Z,4.56
2019-03-12T00:48:07.296Z,4.58
2019-03-12T00:49:07.318Z,4.58
2019-03-12T00:50:07.346Z,4.58
2019-03-12T00:51:07.368Z,4.56
2019-03-12T00:52:07.385Z,4.51
2019-03-12T00:53:07.408Z,4.47
2019-03-12T00:54:07.452Z,4.50
2019-03-12T00:55:07.452Z,4.51
2019-03-12T00:56:07.484Z,4.54
2019-03-12T00:57:07.500Z,4.54
2019-03-12T00:58:07.522Z,4.50
2019-03-12T00:59:07.577Z,4.54
2019-03-12T01:00:07.574Z,4.51
2019-03-12T01:01:07.590Z,4.47
2019-03-12T01:02:07.614Z,4.46
2019-03-12T01:03:07.632Z,4.42
2019-03-12T01:04:07.654Z,4.47
2019-03-12T01:05:07.698Z,4.40
2019-03-12T01:06:07.734Z,4.35
2019-03-12T01:07:07.723Z,4.42
2019-03-12T01:08:07.746Z,4.33
2019-03-12T01:09:07.769Z,4.35
2019-03-12T01:10:07.801Z,4.33
2019-03-12T01:11:07.835Z,4.38
2019-03-12T01:12:07.837Z,4.32
2019-03-12T01:13:07.913Z,4.28
2019-03-12T01:14:07.884Z,4.33
2019-03-12T01:15:07.902Z,4.36
2019-03-12T01:16:07.925Z,4.29
2019-03-12T01:17:07.946Z,4.28
2019-03-12T01:18:07.991Z,4.30
2019-03-12T01:19:07.989Z,4.24
2019-03-12T01:20:08.027Z,4.29
2019-03-12T01:21:08.069Z,4.24
2019-03-12T01:22:08.056Z,4.24
2019-03-12T01:23:08.081Z,4.29
2019-03-12T01:24:08.102Z,4.29
2019-03-12T01:25:08.126Z,4.32
2019-03-12T01:26:08.223Z,4.26
2019-03-12T01:27:08.169Z,4.20
2019-03-12T01:28:08.210Z,4.30
2019-03-12T01:29:08.219Z,4.20
2019-03-12T01:30:08.238Z,4.24
2019-03-12T01:31:08.257Z,4.29
2019-03-12T01:32:21.018Z,4.20
2019-03-12T01:33:08.351Z,4.14
2019-03-12T01:34:08.326Z,4.21
2019-03-12T01:35:08.348Z,4.18
2019-03-12T01:36:08.371Z,4.22
2019-03-12T01:37:08.419Z,4.18
2019-03-12T01:38:08.530Z,4.22
2019-03-12T01:39:08.434Z,4.21
2019-03-12T01:40:08.462Z,4.11
2019-03-12T01:41:08.486Z,4.12
2019-03-12T01:42:08.541Z,4.21
2019-03-12T01:43:08.526Z,4.14
2019-03-12T01:44:08.551Z,4.18
2019-03-12T01:45:08.571Z,4.10
2019-03-12T01:46:08.600Z,4.12
2019-03-12T01:47:08.638Z,4.12
2019-03-12T01:48:08.636Z,4.03
2019-03-12T01:49:08.725Z,4.12
2019-03-12T01:50:08.703Z,3.99
2019-03-12T01:51:08.702Z,3.99
2019-03-12T01:52:08.727Z,4.00
2019-03-12T01:53:08.749Z,4.04
2019-03-12T01:54:08.773Z,4.02
2019-03-12T01:55:08.801Z,4.08
2019-03-12T01:56:08.814Z,4.00
2019-03-12T01:57:08.856Z,4.00
2019-03-12T01:58:08.888Z,3.90
2019-03-12T01:59:08.882Z,3.92
2019-03-12T02:00:08.903Z,3.89
2019-03-12T02:01:08.950Z,4.04
2019-03-12T02:02:08.950Z,3.89
2019-03-12T02:03:08.968Z,3.92
2019-03-12T02:04:09.000Z,3.86
2019-03-12T02:05:09.017Z,3.93
2019-03-12T02:06:09.036Z,3.92
2019-03-12T02:07:09.061Z,3.89
2019-03-12T02:08:09.123Z,3.96
2019-03-12T02:09:09.117Z,3.92
2019-03-12T02:10:09.126Z,3.81
2019-03-12T02:11:09.150Z,3.82
2019-03-12T02:12:09.176Z,3.89
2019-03-12T02:13:09.194Z,3.85
2019-03-12T02:14:09.215Z,3.82
2019-03-12T02:15:09.241Z,3.85
2019-03-12T02:16:09.263Z,3.82
2019-03-12T02:17:09.280Z,3.81
2019-03-12T02:18:09.306Z,3.86
2019-03-12T02:19:09.330Z,3.72
2019-03-12T02:20:09.350Z,3.75
2019-03-12T02:21:09.376Z,3.79
2019-03-12T02:22:09.416Z,3.75
2019-03-12T02:23:09.421Z,3.78
2019-03-12T02:24:09.438Z,3.72
2019-03-12T02:25:09.459Z,3.76
2019-03-12T02:26:09.501Z,3.71
2019-03-12T02:27:09.502Z,3.78
2019-03-12T02:28:09.526Z,3.75
2019-03-12T02:29:09.560Z,3.64
2019-03-12T02:30:09.576Z,3.64
2019-03-12T02:31:09.606Z,3.67
2019-03-12T02:32:09.613Z,3.67
2019-03-12T02:33:09.657Z,3.69
2019-03-12T02:34:09.659Z,3.66
2019-03-12T02:35:09.685Z,3.63
2019-03-12T02:36:09.733Z,3.67
2019-03-12T02:37:09.733Z,3.66
2019-03-12T02:38:09.750Z,3.67
2019-03-12T02:39:09.768Z,3.67
2019-03-12T02:40:09.802Z,3.61
2019-03-12T02:41:09.832Z,3.54
2019-03-12T02:42:12.683Z,3.57
2019-03-12T02:43:09.860Z,3.56
2019-03-12T02:44:09.882Z,3.46
2019-03-12T02:45:09.909Z,3.56
2019-03-12T02:46:09.925Z,3.57
2019-03-12T02:47:09.973Z,3.60
2019-03-12T02:48:09.967Z,3.49
2019-03-12T02:49:10.357Z,3.46
2019-03-12T02:50:10.018Z,3.51
2019-03-12T02:51:10.040Z,3.51
2019-03-12T02:52:10.058Z,3.54
2019-03-12T02:53:10.078Z,3.51
2019-03-12T02:54:10.116Z,3.51
2019-03-12T02:55:10.127Z,3.56
2019-03-12T02:56:10.166Z,3.56
2019-03-12T02:57:10.171Z,3.56
2019-03-12T02:58:10.193Z,3.49
2019-03-12T02:59:10.237Z,3.40
2019-03-12T03:00:10.268Z,3.46
2019-03-12T03:01:10.274Z,3.45
2019-03-12T03:02:10.299Z,3.46
2019-03-12T03:03:10.308Z,3.43
2019-03-12T03:04:10.387Z,3.35
2019-03-12T03:05:10.415Z,3.35
2019-03-12T03:06:10.382Z,3.37
2019-03-12T03:07:10.398Z,3.37
2019-03-12T03:08:10.410Z,3.23
2019-03-12T03:09:10.442Z,3.39
2019-03-12T03:10:10.490Z,3.32
2019-03-12T03:11:10.475Z,3.34
2019-03-12T03:12:10.508Z,3.35
2019-03-12T03:13:10.522Z,3.35
2019-03-12T03:14:10.545Z,3.27
2019-03-12T03:15:10.590Z,3.35
2019-03-12T03:16:10.588Z,3.34
2019-03-12T03:17:10.613Z,3.35
2019-03-12T03:18:10.636Z,3.29
2019-03-12T03:19:10.652Z,3.32
2019-03-12T03:20:10.676Z,3.32
2019-03-12T03:21:10.727Z,3.27
2019-03-12T03:22:10.727Z,3.27
2019-03-12T03:23:10.743Z,3.35
2019-03-12T03:24:10.765Z,3.30
2019-03-12T03:25:10.795Z,3.34
2019-03-12T03:26:10.806Z,3.32
2019-03-12T03:27:10.866Z,3.37
2019-03-12T03:28:10.851Z,3.30
2019-03-12T03:29:10.874Z,3.37
2019-03-12T03:30:10.895Z,3.27
2019-03-12T03:31:10.919Z,3.32
2019-03-12T03:32:11.024Z,3.35
2019-03-12T03:33:10.969Z,3.29
2019-03-12T03:34:10.988Z,3.32
2019-03-12T03:35:11.008Z,3.32
2019-03-12T03:36:11.030Z,3.29
2019-03-12T03:37:11.071Z,3.19
2019-03-12T03:38:11.074Z,3.27
2019-03-12T03:39:11.095Z,3.16
2019-03-12T03:40:11.119Z,3.29
2019-03-12T03:41:11.210Z,3.30
2019-03-12T03:42:11.206Z,3.30
2019-03-12T03:43:11.185Z,3.34
2019-03-12T03:44:11.207Z,3.29
2019-03-12T03:45:11.241Z,3.35
2019-03-12T03:46:11.258Z,3.27
2019-03-12T03:47:11.272Z,3.32
2019-03-12T03:48:11.292Z,3.32
2019-03-12T03:49:11.334Z,3.34
2019-03-12T03:50:11.339Z,3.30
2019-03-12T03:51:11.360Z,3.27
2019-03-12T03:52:11.382Z,3.27
2019-03-12T03:53:11.404Z,3.34
2019-03-12T03:54:11.424Z,3.19
2019-03-12T03:55:11.446Z,3.34
2019-03-12T03:56:11.470Z,3.26
2019-03-12T03:57:11.493Z,3.26
2019-03-12T03:58:11.516Z,3.27
2019-03-12T03:59:11.540Z,3.29
2019-03-12T04:00:11.557Z,3.21
2019-03-12T04:01:11.581Z,3.29
2019-03-12T04:02:11.601Z,3.26
2019-03-12T04:03:11.647Z,3.19
2019-03-12T04:04:11.646Z,3.26
2019-03-12T04:05:11.680Z,3.19
2019-03-12T04:06:11.695Z,3.17
2019-03-12T04:07:11.711Z,3.16
2019-03-12T04:08:11.768Z,3.17
2019-03-12T04:09:11.753Z,3.26
2019-03-12T04:10:11.781Z,3.19
2019-03-12T04:11:11.796Z,3.27
2019-03-12T04:12:11.830Z,3.24
2019-03-12T04:13:11.861Z,3.27
2019-03-12T04:14:11.864Z,3.17
2019-03-12T04:15:11.946Z,3.30
2019-03-12T04:16:11.917Z,3.29
2019-03-12T04:17:11.931Z,3.30
2019-03-12T04:18:11.953Z,3.34
2019-03-12T04:19:11.981Z,3.35
2019-03-12T04:20:12.018Z,3.23
2019-03-12T04:21:12.022Z,3.30
2019-03-12T04:22:12.038Z,3.26
2019-03-12T04:23:15.824Z,3.35
2019-03-12T04:24:12.085Z,3.45
2019-03-12T04:25:12.103Z,3.45
2019-03-12T04:26:12.129Z,3.39
2019-03-12T04:27:12.196Z,3.42
2019-03-12T04:28:12.181Z,3.43
2019-03-12T04:29:12.193Z,3.40
2019-03-12T04:30:12.219Z,3.43
2019-03-12T04:31:12.243Z,3.35
2019-03-12T04:32:12.278Z,3.45
2019-03-12T04:33:12.283Z,3.43
2019-03-12T04:34:12.305Z,3.51
2019-03-12T04:35:12.327Z,3.46
2019-03-12T04:36:12.348Z,3.51
2019-03-12T04:37:12.393Z,3.56
2019-03-12T04:38:12.433Z,3.51
2019-03-12T04:39:12.414Z,3.54
2019-03-12T04:40:12.438Z,3.60
2019-03-12T04:41:12.460Z,3.56
2019-03-12T04:42:12.477Z,3.54
2019-03-12T04:43:12.521Z,3.48
2019-03-12T04:44:12.525Z,3.57
2019-03-12T04:45:12.551Z,3.63
2019-03-12T04:46:12.571Z,3.57
2019-03-12T04:47:12.598Z,3.58
2019-03-12T04:48:12.643Z,3.69
2019-03-12T04:49:12.640Z,3.75
2019-03-12T04:50:12.658Z,3.74
2019-03-12T04:51:12.676Z,3.69
2019-03-12T04:52:12.701Z,3.71
2019-03-12T04:53:12.721Z,3.76
2019-03-12T04:54:12.746Z,3.75
2019-03-12T04:55:12.767Z,3.78
2019-03-12T04:56:12.790Z,3.89
2019-03-12T04:57:12.811Z,3.81
2019-03-12T04:58:12.857Z,3.89
2019-03-12T04:59:12.876Z,3.84
2019-03-12T05:00:12.880Z,3.89
2019-03-12T05:01:12.899Z,3.90
2019-03-12T05:02:12.920Z,3.93
2019-03-12T05:03:12.950Z,3.93
2019-03-12T05:04:12.987Z,3.89
2019-03-12T05:05:12.991Z,3.94
2019-03-12T05:06:13.011Z,3.86
2019-03-12T05:07:13.030Z,3.92
2019-03-12T05:08:13.055Z,3.93
2019-03-12T05:09:13.112Z,3.90
2019-03-12T05:10:13.100Z,3.97
2019-03-12T05:11:13.118Z,3.99
2019-03-12T05:12:13.143Z,4.04
2019-03-12T05:13:13.165Z,4.10
2019-03-12T05:14:13.190Z,4.03
2019-03-12T05:15:13.330Z,4.03
2019-03-12T05:16:13.287Z,3.99
2019-03-12T05:17:13.253Z,4.11
2019-03-12T05:18:13.277Z,4.07
2019-03-12T05:19:13.298Z,4.14
2019-03-12T05:20:13.318Z,4.10
2019-03-12T05:21:13.355Z,4.10
2019-03-12T05:22:13.421Z,4.18
2019-03-12T05:23:13.391Z,4.11
2019-03-12T05:24:13.409Z,4.08
2019-03-12T05:25:13.432Z,4.18
2019-03-12T05:26:13.461Z,4.15
2019-03-12T05:27:13.509Z,4.11
2019-03-12T05:28:13.504Z,4.18
2019-03-12T05:29:13.518Z,4.15
2019-03-12T05:30:13.546Z,4.15
2019-03-12T05:31:13.564Z,4.15
2019-03-12T05:32:13.596Z,4.14
2019-03-12T05:33:13.638Z,4.10
2019-03-12T05:34:13.639Z,4.11
2019-03-12T05:35:13.659Z,4.15
2019-03-12T05:36:13.673Z,4.17
2019-03-12T05:37:13.696Z,4.15
2019-03-12T05:38:13.733Z,4.20
2019-03-12T05:39:13.779Z,4.11
2019-03-12T05:40:13.767Z,4.21
2019-03-12T05:41:13.788Z,4.17
2019-03-12T05:42:13.812Z,4.08
2019-03-12T05:43:13.891Z,4.17
2019-03-12T05:44:13.853Z,4.17
2019-03-12T05:45:13.874Z,4.22
2019-03-12T05:46:13.905Z,4.17
2019-03-12T05:47:13.920Z,4.15
2019-03-12T05:48:13.999Z,4.18
2019-03-12T05:49:13.961Z,4.20
2019-03-12T05:50:13.987Z,4.17
2019-03-12T05:51:14.013Z,4.21
2019-03-12T05:52:14.031Z,4.18
2019-03-12T05:53:14.053Z,4.10
2019-03-12T05:54:14.076Z,4.07
2019-03-12T05:55:14.096Z,4.14
2019-03-12T05:56:14.117Z,4.11
2019-03-12T05:57:14.140Z,4.12
2019-03-12T05:58:14.184Z,4.08
2019-03-12T05:59:14.183Z,4.17
2019-03-12T06:00:14.228Z,4.08
2019-03-12T06:01:14.231Z,4.08
2019-03-12T06:02:14.251Z,4.10
2019-03-12T06:03:14.282Z,4.18
2019-03-12T06:04:14.295Z,4.08
2019-03-12T06:05:14.339Z,4.21
2019-03-12T06:06:14.340Z,4.17
2019-03-12T06:07:14.364Z,4.18
2019-03-12T06:08:14.393Z,4.14
2019-03-12T06:09:14.406Z,4.21
2019-03-12T06:10:14.431Z,4.30
2019-03-12T06:11:14.454Z,4.26
2019-03-12T06:12:14.472Z,4.38
2019-03-12T06:13:14.495Z,4.46
2019-03-12T06:14:14.526Z,4.38
2019-03-12T06:15:14.544Z,4.39
2019-03-12T06:16:14.564Z,4.53
2019-03-12T06:17:14.590Z,4.47
2019-03-12T06:18:14.609Z,4.51
2019-03-12T06:19:14.630Z,4.51
2019-03-12T06:20:14.653Z,4.50
2019-03-12T06:21:14.676Z,4.50
2019-03-12T06:22:14.702Z,4.54
2019-03-12T06:23:15.369Z,4.61
2019-03-12T06:24:14.743Z,4.64
2019-03-12T06:25:14.852Z,4.69
2019-03-12T06:26:14.786Z,4.57
2019-03-12T06:27:17.999Z,4.71
2019-03-12T06:28:14.833Z,4.68
2019-03-12T06:29:14.852Z,4.65
2019-03-12T06:30:14.876Z,4.69
2019-03-12T06:31:14.896Z,4.61
2019-03-12T06:32:14.919Z,4.60
2019-03-12T06:33:14.951Z,4.60
2019-03-12T06:34:14.966Z,4.66
2019-03-12T06:35:14.992Z,4.69
2019-03-12T06:36:15.011Z,4.68
2019-03-12T06:37:15.034Z,4.69
2019-03-12T06:38:15.054Z,4.74
2019-03-12T06:39:15.079Z,4.79
2019-03-12T06:40:15.106Z,4.78
2019-03-12T06:41:15.126Z,4.90
2019-03-12T06:42:15.147Z,4.98
2019-03-12T06:43:15.171Z,4.97
2019-03-12T06:44:15.202Z,4.95
2019-03-12T06:45:15.217Z,4.97
2019-03-12T06:46:15.842Z,5.00
2019-03-12T06:47:15.258Z,5.05
2019-03-12T06:48:15.286Z,5.08
2019-03-12T06:49:15.305Z,5.09
2019-03-12T06:50:15.326Z,5.08
2019-03-12T06:51:15.348Z,5.08
2019-03-12T06:52:15.370Z,5.09
2019-03-12T06:53:15.395Z,5.15
2019-03-12T06:54:15.419Z,5.24
2019-03-12T06:55:15.445Z,5.27
2019-03-12T06:56:15.468Z,5.18
2019-03-12T06:57:15.484Z,5.16
2019-03-12T06:58:15.507Z,5.26
2019-03-12T06:59:15.540Z,5.31
2019-03-12T07:00:15.555Z,5.26
2019-03-12T07:01:15.577Z,5.33
2019-03-12T07:02:15.607Z,5.36
2019-03-12T07:03:15.626Z,5.48
2019-03-12T07:04:15.648Z,5.46
2019-03-12T07:05:15.669Z,5.54
2019-03-12T07:06:15.692Z,5.60
2019-03-12T07:07:17.096Z,5.60
2019-03-12T07:08:15.737Z,5.62
2019-03-12T07:09:58.313Z,5.80
2019-03-12T07:10:58.326Z,5.78
2019-03-12T07:11:58.348Z,5.85
2019-03-12T07:12:58.378Z,5.95
2019-03-12T07:13:58.399Z,5.96
2019-03-12T07:14:58.416Z,6.03
2019-03-12T07:15:58.442Z,6.06
2019-03-12T07:17:41.010Z,5.99
2019-03-12T07:18:41.033Z,5.98
2019-03-12T07:19:41.054Z,5.84
2019-03-12T07:20:41.086Z,5.81
2019-03-12T07:21:41.107Z,5.89
2019-03-12T07:22:41.124Z,5.82
2019-03-12T07:23:41.149Z,5.87
2019-03-12T07:24:41.172Z,5.87
2019-03-12T07:25:41.194Z,5.89
2019-03-12T07:26:41.226Z,5.88
2019-03-12T07:27:41.793Z,5.84
2019-03-12T07:28:50.353Z,5.85
2019-03-12T07:29:41.290Z,5.88
2019-03-12T07:30:41.313Z,5.85
2019-03-12T07:31:41.338Z,5.89
2019-03-12T07:32:41.358Z,6.00
2019-03-12T07:33:41.478Z,5.88
2019-03-12T07:34:41.416Z,5.91
2019-03-12T07:35:41.431Z,6.02
2019-03-12T07:36:41.451Z,5.98
2019-03-12T07:37:41.475Z,5.92
2019-03-12T07:38:41.499Z,5.96
2019-03-12T07:39:41.522Z,5.99
2019-03-12T07:40:41.545Z,5.95
2019-03-12T07:41:41.569Z,5.92
2019-03-12T07:42:41.593Z,5.98
2019-03-12T07:43:41.616Z,6.02
2019-03-12T07:44:41.636Z,6.02
2019-03-12T07:45:42.338Z,6.00
2019-03-12T07:46:41.683Z,6.05
2019-03-12T07:47:42.152Z,6.06
2019-03-12T07:48:41.812Z,6.10
2019-03-12T07:49:41.761Z,6.15
2019-03-12T07:50:41.780Z,6.14
2019-03-12T07:51:41.804Z,6.17
2019-03-12T07:52:41.825Z,6.18
2019-03-12T07:53:41.846Z,6.34
2019-03-12T07:54:41.871Z,6.29
2019-03-12T07:55:41.904Z,6.33
2019-03-12T07:56:41.917Z,6.29
2019-03-12T07:57:41.948Z,6.28
2019-03-12T07:58:41.963Z,6.37
2019-03-12T07:59:41.986Z,6.37
2019-03-12T08:00:42.010Z,6.33
2019-03-12T08:01:42.033Z,6.40
2019-03-12T08:02:42.054Z,6.39
2019-03-12T08:03:42.079Z,6.31
2019-03-12T08:04:43.616Z,6.34
2019-03-12T08:05:42.128Z,6.34
2019-03-12T08:06:42.151Z,6.33
2019-03-12T08:07:42.181Z,6.34
2019-03-12T08:08:42.198Z,6.34
2019-03-12T08:09:42.221Z,6.26
2019-03-12T08:10:42.244Z,6.29
2019-03-12T08:11:42.274Z,6.28
2019-03-12T08:12:42.289Z,6.39
2019-03-12T08:13:42.315Z,6.42
2019-03-12T08:14:42.345Z,6.39
2019-03-12T08:15:42.360Z,6.42
2019-03-12T08:16:42.383Z,6.44
2019-03-12T08:17:42.406Z,6.46
2019-03-12T08:18:42.432Z,6.40
2019-03-12T08:19:42.457Z,6.43
2019-03-12T08:20:42.476Z,6.43
2019-03-12T08:21:42.503Z,6.58
2019-03-12T08:22:42.529Z,6.54
2019-03-12T08:23:42.549Z,6.58
2019-03-12T08:24:42.577Z,6.54
2019-03-12T08:25:43.890Z,6.64
2019-03-12T08:26:42.628Z,6.57
2019-03-12T08:27:42.641Z,6.62
2019-03-12T08:28:42.669Z,6.67
2019-03-12T08:29:42.689Z,6.64
2019-03-12T08:30:42.711Z,6.60
2019-03-12T08:31:42.737Z,6.72
2019-03-12T08:32:42.760Z,6.72
2019-03-12T08:33:50.337Z,6.86
2019-03-12T08:34:42.807Z,6.75
2019-03-12T08:35:42.832Z,6.88
2019-03-12T08:36:42.873Z,6.90
2019-03-12T08:37:42.876Z,6.95
2019-03-12T08:38:46.178Z,6.95
2019-03-12T08:39:42.926Z,7.00
2019-03-12T08:40:52.109Z,7.03
2019-03-12T08:41:42.979Z,7.01
2019-03-12T08:42:54.065Z,7.12
2019-03-12T08:43:43.028Z,7.08
2019-03-12T08:44:43.043Z,7.11
2019-03-12T08:45:45.418Z,7.13
2019-03-12T08:46:43.091Z,6.98
2019-03-12T08:47:43.121Z,6.91
2019-03-12T08:48:43.138Z,6.82
2019-03-12T08:49:43.159Z,6.95
2019-03-12T08:50:43.185Z,6.95
2019-03-12T08:51:43.212Z,6.94
2019-03-12T08:52:43.235Z,6.94
2019-03-12T08:53:43.257Z,6.91
2019-03-12T08:54:53.702Z,7.04
2019-03-12T08:55:43.302Z,6.95
2019-03-12T08:56:43.328Z,7.12
2019-03-12T08:57:43.351Z,7.22
2019-03-12T08:58:43.376Z,7.34
2019-03-12T08:59:43.400Z,7.45
2019-03-12T09:00:43.422Z,7.58
2019-03-12T09:01:47.133Z,7.55
2019-03-12T09:02:43.468Z,7.64
2019-03-12T09:03:43.495Z,7.54
2019-03-12T09:04:43.519Z,7.49
2019-03-12T09:05:43.540Z,7.64
2019-03-12T09:06:43.565Z,7.68
2019-03-12T09:07:43.591Z,7.71
2019-03-12T09:08:43.613Z,7.61
2019-03-12T09:09:43.636Z,7.80
2019-03-12T09:10:43.863Z,7.83
2019-03-12T09:11:43.686Z,7.89
2019-03-12T09:12:43.712Z,7.82
2019-03-12T09:13:43.735Z,7.86
2019-03-12T09:14:43.763Z,7.92
2019-03-12T09:15:43.785Z,8.01
2019-03-12T09:16:43.807Z,7.98
2019-03-12T09:17:43.829Z,8.03
2019-03-12T09:18:43.856Z,8.07
2019-03-12T09:19:43.878Z,7.99
2019-03-12T09:20:43.910Z,7.96
2019-03-12T09:21:43.927Z,7.99
2019-03-12T09:22:43.962Z,8.01
2019-03-12T09:23:43.978Z,8.01
2019-03-12T09:24:43.999Z,8.13
2019-03-12T09:25:44.026Z,7.98
2019-03-12T09:26:44.050Z,7.98
2019-03-12T09:27:44.075Z,8.10
2019-03-12T09:28:44.106Z,7.98
2019-03-12T09:29:44.123Z,8.03
2019-03-12T09:30:44.170Z,8.16
2019-03-12T09:31:44.171Z,8.06
2019-03-12T09:32:44.198Z,8.19
2019-03-12T09:33:44.220Z,8.24
2019-03-12T09:34:44.246Z,8.28
2019-03-12T09:35:44.268Z,8.19
2019-03-12T09:36:44.297Z,8.28
2019-03-12T09:37:44.323Z,8.24
2019-03-12T09:38:44.342Z,8.31
2019-03-12T09:39:44.368Z,8.31
2019-03-12T09:40:44.393Z,8.25
2019-03-12T09:41:44.416Z,8.16
2019-03-12T09:42:44.441Z,8.22
2019-03-12T09:43:44.469Z,8.26
2019-03-12T09:44:44.490Z,8.22
2019-03-12T09:45:44.513Z,8.22
2019-03-12T09:46:44.539Z,8.14
2019-03-12T09:47:44.562Z,8.32
2019-03-12T09:48:44.587Z,8.52
2019-03-12T09:49:44.613Z,8.57
2019-03-12T09:50:44.636Z,8.71
2019-03-12T09:51:44.662Z,8.68
2019-03-12T09:52:44.687Z,8.53
2019-03-12T09:53:44.711Z,8.64
2019-03-12T09:54:44.736Z,8.68
2019-03-12T09:55:44.760Z,8.72
2019-03-12T09:56:44.785Z,8.68
2019-03-12T09:57:44.809Z,8.58
2019-03-12T09:58:44.841Z,8.80
2019-03-12T09:59:44.859Z,8.67
2019-03-12T10:00:44.901Z,8.68
2019-03-12T10:01:44.908Z,8.72
2019-03-12T10:02:44.934Z,8.94
2019-03-12T10:03:44.962Z,8.97
2019-03-12T10:04:44.982Z,9.00
2019-03-12T10:05:45.011Z,9.09
2019-03-12T10:06:45.033Z,9.05
2019-03-12T10:07:45.058Z,9.08
2019-03-12T10:08:45.084Z,8.97
2019-03-12T10:09:45.151Z,9.03
2019-03-12T10:10:45.134Z,8.95
2019-03-12T10:11:45.156Z,8.90
2019-03-12T10:12:45.503Z,8.76
2019-03-12T10:13:45.215Z,8.89
2019-03-12T10:14:45.239Z,8.82
2019-03-12T10:15:45.259Z,8.94
2019-03-12T10:16:45.289Z,8.92
2019-03-12T10:17:45.306Z,8.80
2019-03-12T10:18:45.333Z,8.94
2019-03-12T10:19:45.356Z,8.97
2019-03-12T10:20:45.383Z,9.04
2019-03-12T10:21:45.412Z,9.01
2019-03-12T10:22:45.432Z,9.05
2019-03-12T10:23:45.456Z,9.12
2019-03-12T10:24:45.482Z,9.01
2019-03-12T10:25:45.505Z,9.16
2019-03-12T10:26:45.530Z,9.17
2019-03-12T10:27:45.558Z,9.04
2019-03-12T10:28:45.583Z,9.19
2019-03-12T10:29:45.613Z,9.14
2019-03-12T10:30:45.631Z,9.16
2019-03-12T10:31:45.876Z,9.16
2019-03-12T10:32:45.682Z,9.17
2019-03-12T10:33:45.705Z,9.24
2019-03-12T10:34:45.783Z,9.16
2019-03-12T10:35:45.756Z,9.11
2019-03-12T10:36:45.784Z,9.20
2019-03-12T10:37:45.808Z,9.16
2019-03-12T10:38:45.833Z,9.14
2019-03-12T10:39:45.862Z,9.16
2019-03-12T10:40:45.892Z,9.19
2019-03-12T10:41:45.914Z,9.12
2019-03-12T10:42:45.931Z,9.27
2019-03-12T10:43:45.958Z,9.38
2019-03-12T10:44:45.984Z,9.50
2019-03-12T10:45:46.007Z,9.48
2019-03-12T10:46:46.036Z,9.48
2019-03-12T10:47:46.057Z,9.60
2019-03-12T10:48:46.093Z,9.48
2019-03-12T10:49:46.109Z,9.50
2019-03-12T10:50:46.135Z,9.55
2019-03-12T10:51:46.158Z,9.50
2019-03-12T10:52:46.184Z,9.48
2019-03-12T10:53:46.210Z,9.44
2019-03-12T10:54:46.233Z,9.57
2019-03-12T10:55:46.261Z,9.52
2019-03-12T10:56:46.285Z,9.55
2019-03-12T10:57:46.308Z,9.62
2019-03-12T10:58:46.334Z,9.70
2019-03-12T10:59:46.360Z,9.74
2019-03-12T11:00:46.386Z,9.81
2019-03-12T11:01:46.409Z,9.78
2019-03-12T11:02:46.438Z,9.66
2019-03-12T11:03:46.464Z,9.88
2019-03-12T11:04:46.493Z,9.99
2019-03-12T11:05:46.576Z,9.99
2019-03-12T11:06:46.535Z,10.05
2019-03-12T11:07:46.563Z,10.02
2019-03-12T11:08:46.584Z,10.08
2019-03-12T11:09:46.614Z,10.13
2019-03-12T11:10:46.642Z,10.02
2019-03-12T11:11:46.722Z,10.11
2019-03-12T11:12:46.687Z,10.05
2019-03-12T11:13:46.733Z,10.26
2019-03-12T11:14:46.740Z,10.14
2019-03-12T11:15:46.767Z,10.26
2019-03-12T11:16:46.790Z,10.31
2019-03-12T11:17:49.778Z,10.41
2019-03-12T11:18:46.843Z,10.35
2019-03-12T11:19:46.868Z,10.41
2019-03-12T11:20:46.891Z,10.38
2019-03-12T11:21:46.928Z,10.38
2019-03-12T11:22:46.944Z,10.35
2019-03-12T11:23:46.977Z,10.35
2019-03-12T11:24:46.996Z,10.38
2019-03-12T11:25:47.019Z,10.31
2019-03-12T11:26:47.046Z,10.33
2019-03-12T11:27:47.071Z,10.33
2019-03-12T11:28:47.107Z,10.42
2019-03-12T11:29:47.139Z,10.63
2019-03-12T11:30:47.157Z,10.54
2019-03-12T11:31:47.177Z,10.57
2019-03-12T11:32:47.201Z,10.65
2019-03-12T11:33:47.228Z,10.72
2019-03-12T11:34:47.257Z,10.75
2019-03-12T11:35:47.279Z,10.80
2019-03-12T11:36:47.308Z,10.94
2019-03-12T11:37:47.344Z,11.08
2019-03-12T11:38:47.357Z,11.05
2019-03-12T11:39:47.383Z,10.97
2019-03-12T11:40:47.408Z,10.90
2019-03-12T11:41:47.516Z,10.88
2019-03-12T11:42:47.462Z,10.85
2019-03-12T11:43:47.490Z,10.94
2019-03-12T11:44:47.514Z,10.91
2019-03-12T11:45:47.539Z,10.88
2019-03-12T11:46:47.568Z,10.87
2019-03-12T11:47:47.609Z,10.95
2019-03-12T11:48:47.620Z,10.90
2019-03-12T11:49:47.766Z,10.92
2019-03-12T11:50:47.674Z,11.08
2019-03-12T11:51:47.697Z,11.16
2019-03-12T11:52:54.593Z,11.39
2019-03-12T11:53:47.992Z,11.56
2019-03-12T11:54:47.849Z,11.45
2019-03-12T11:55:47.928Z,11.43
2019-03-12T11:56:47.828Z,11.38
2019-03-12T11:57:47.935Z,11.42
2019-03-12T11:58:47.962Z,11.43
2019-03-12T11:59:47.925Z,11.51
2019-03-12T12:00:47.935Z,11.57
2019-03-12T12:01:47.960Z,11.64
2019-03-12T12:02:59.366Z,11.61
2019-03-12T12:03:48.017Z,11.52
2019-03-12T12:04:48.046Z,11.28
2019-03-12T12:05:48.067Z,11.34
2019-03-12T12:06:48.106Z,11.34
2019-03-12T12:07:48.149Z,11.38
2019-03-12T12:08:48.150Z,11.51
2019-03-12T12:09:48.176Z,11.35
2019-03-12T12:10:48.207Z,11.35
2019-03-12T12:11:48.230Z,11.34
2019-03-12T12:12:48.254Z,11.33
2019-03-12T12:13:48.280Z,11.31
2019-03-12T12:14:48.309Z,11.39
2019-03-12T12:15:48.334Z,11.30
2019-03-12T12:16:48.367Z,11.31
2019-03-12T12:17:49.490Z,11.27
2019-03-12T12:18:48.412Z,11.24
2019-03-12T12:19:48.519Z,11.30
2019-03-12T12:20:48.468Z,11.39
2019-03-12T12:21:48.493Z,11.46
2019-03-12T12:22:48.518Z,11.42
2019-03-12T12:23:48.544Z,11.38
2019-03-12T12:24:48.575Z,11.39
2019-03-12T12:25:48.595Z,11.35
2019-03-12T12:26:48.628Z,11.35
2019-03-12T12:27:48.652Z,11.41
2019-03-12T12:28:48.677Z,11.45
2019-03-12T12:29:48.701Z,11.33
2019-03-12T12:30:48.730Z,11.21
2019-03-12T12:31:48.755Z,11.24
2019-03-12T12:32:48.782Z,11.20
2019-03-12T12:33:48.807Z,11.21
2019-03-12T12:34:48.837Z,11.06
2019-03-12T12:35:48.861Z,11.06
2019-03-12T12:36:48.886Z,11.06
2019-03-12T12:37:48.917Z,10.92
2019-03-12T12:38:48.942Z,10.90
2019-03-12T12:39:48.963Z,10.97
2019-03-12T12:40:48.991Z,10.94
2019-03-12T12:41:49.067Z,10.88
2019-03-12T12:42:49.043Z,10.90
2019-03-12T12:43:49.072Z,10.85
2019-03-12T12:44:49.100Z,10.80
2019-03-12T12:45:49.120Z,10.77
2019-03-12T12:46:49.146Z,10.79
2019-03-12T12:47:49.176Z,10.83
2019-03-12T12:48:49.197Z,10.80
2019-03-12T12:49:49.223Z,10.73
2019-03-12T12:51:02.555Z,10.80
2019-03-12T12:51:49.281Z,10.83
2019-03-12T12:52:49.306Z,10.75
2019-03-12T12:53:49.326Z,10.83
2019-03-12T12:54:49.363Z,10.83
2019-03-12T12:55:49.377Z,10.83
2019-03-12T12:56:49.401Z,10.85
2019-03-12T12:57:49.434Z,10.77
2019-03-12T12:58:49.454Z,10.94
2019-03-12T12:59:49.832Z,11.08
2019-03-12T13:00:49.518Z,10.98
2019-03-12T13:01:49.528Z,11.00
2019-03-12T13:02:49.554Z,11.16
2019-03-12T13:03:49.587Z,11.21
2019-03-12T13:04:49.607Z,11.20
2019-03-12T13:05:49.631Z,11.18
2019-03-12T13:06:49.657Z,11.10
2019-03-12T13:07:49.734Z,11.28
2019-03-12T13:08:49.711Z,11.21
2019-03-12T13:09:49.736Z,11.21
2019-03-12T13:10:49.761Z,11.13
2019-03-12T13:11:49.809Z,11.02
2019-03-12T13:12:49.819Z,11.06
2019-03-12T13:13:49.842Z,11.15
2019-03-12T13:14:49.862Z,11.27
2019-03-12T13:15:49.903Z,11.64